Time;durP1;ratioP1;P1;durP2;ratioP2;P2;SDS_P1;SDS_P2;PMS_P1;PMS_P2;Temp;Humidity;BMP_temperature;BMP_pressure;BME280_temperature;BME280_humidity;BME280_pressure;Samples;Min_cycle;Max_cycle;Signal;HPM_P1;HPM_P2
2022/07/08 00:01:33;;;;;;;9.03;2.10;;;;;;;19.45;56.91;102039.41;4929876;28;121901;-83
2022/07/08 00:03:59;;;;;;;11.40;2.40;;;;;;;19.50;56.58;102044.31;4943494;28;122881;-83
2022/07/08 00:06:25;;;;;;;10.95;2.25;;;;;;;19.44;56.33;102038.66;4952306;28;119596;-83
2022/07/08 00:08:51;;;;;;;10.77;2.42;;;;;;;19.48;56.95;102044.78;4934628;28;121875;-83
2022/07/08 00:11:16;;;;;;;9.50;2.58;;;;;;;19.48;56.62;102050.34;4963622;28;120569;-83
2022/07/08 00:13:42;;;;;;;11.35;2.47;;;;;;;19.41;56.34;102033.28;4949710;28;120528;-83
2022/07/08 00:16:28;;;;;;;12.32;2.47;;;;;;;19.46;56.48;102047.28;4964275;28;119817;-83
2022/07/08 00:18:54;;;;;;;11.18;2.40;;;;;;;19.41;56.21;102052.75;4945325;28;122599;-83
2022/07/08 00:21:20;;;;;;;12.85;2.90;;;;;;;19.35;55.37;102051.88;4966793;28;119717;-83
2022/07/08 00:23:46;;;;;;;12.93;2.70;;;;;;;19.35;56.70;102058.19;4961004;28;122913;-83
2022/07/08 00:26:13;;;;;;;13.32;2.65;;;;;;;19.31;56.80;102052.81;4961522;28;119679;-82
2022/07/08 00:28:38;;;;;;;12.23;2.40;;;;;;;19.36;56.62;102054.16;4958224;28;120102;-83
2022/07/08 00:31:04;;;;;;;10.60;2.43;;;;;;;19.38;56.33;102059.25;4949226;28;123261;-83
2022/07/08 00:33:30;;;;;;;9.47;2.10;;;;;;;19.39;57.27;102060.78;4963257;28;121165;-84
2022/07/08 00:35:56;;;;;;;8.03;2.00;;;;;;;19.38;56.77;102054.44;4945069;28;121970;-83
2022/07/08 00:38:21;;;;;;;9.43;2.10;;;;;;;19.38;57.25;102054.44;4963882;28;119987;-83
2022/07/08 00:40:47;;;;;;;11.70;2.53;;;;;;;19.35;56.23;102057.44;4944392;28;120206;-83
2022/07/08 00:43:26;;;;;;;11.27;2.33;;;;;;;19.33;56.67;102050.31;4933250;28;122008;-83
2022/07/08 00:45:51;;;;;;;12.90;2.53;;;;;;;19.30;57.10;102051.28;4973975;28;119596;-83
2022/07/08 00:48:17;;;;;;;10.07;2.45;;;;;;;19.30;56.19;102051.28;4944190;28;121765;-83
2022/07/08 00:50:43;;;;;;;8.80;2.45;;;;;;;19.31;56.37;102055.59;4939415;28;123710;-83
2022/07/08 00:53:09;;;;;;;12.18;2.40;;;;;;;19.27;55.50;102043.13;4929469;28;119908;-84
2022/07/08 00:55:35;;;;;;;9.37;2.10;;;;;;;19.25;55.94;102054.75;4952342;28;122286;-83
2022/07/08 00:58:01;;;;;;;7.67;2.53;;;;;;;19.28;56.09;102056.56;4967262;28;123196;-83
2022/07/08 01:00:27;;;;;;;8.60;2.20;;;;;;;19.26;55.77;102050.72;4968380;28;119890;-82
2022/07/08 01:02:53;;;;;;;8.65;2.33;;;;;;;19.18;55.97;102048.78;4938878;28;121838;-83
2022/07/08 01:05:20;;;;;;;9.10;2.13;;;;;;;19.17;56.14;102056.38;4985035;28;120245;-83
2022/07/08 01:07:47;;;;;;;8.00;1.87;;;;;;;19.20;56.08;102060.22;4950591;28;121849;-83
2022/07/08 01:10:13;;;;;;;8.23;2.28;;;;;;;19.12;56.24;102048.66;4967791;28;120222;-83
2022/07/08 01:12:39;;;;;;;11.52;2.45;;;;;;;19.17;56.08;102055.59;4950885;28;120175;-83
2022/07/08 01:15:05;;;;;;;8.43;2.03;;;;;;;19.16;56.45;102051.25;4958766;28;119854;-83
2022/07/08 01:17:43;;;;;;;10.57;2.43;;;;;;;19.13;56.00;102049.44;4947736;28;124487;-83
2022/07/08 01:20:12;;;;;;;12.15;2.50;;;;;;;19.13;56.53;102052.22;4932456;28;119699;-83
2022/07/08 01:22:38;;;;;;;10.60;2.17;;;;;;;19.08;56.02;102041.75;4942363;28;120943;-83
2022/07/08 01:25:06;;;;;;;12.40;2.70;;;;;;;19.12;55.87;102054.22;4937020;28;122750;-84
2022/07/08 01:27:32;;;;;;;8.73;2.35;;;;;;;19.20;56.00;102063.75;4929730;28;122747;-83
2022/07/08 01:29:58;;;;;;;12.90;2.53;;;;;;;19.17;56.52;102055.59;4934056;28;123033;-83
2022/07/08 01:32:30;;;;;;;12.30;2.67;;;;;;;19.19;56.19;102062.22;4959465;28;119704;-82
2022/07/08 01:34:56;;;;;;;11.40;2.72;;;;;;;19.14;55.75;102062.09;4948229;28;119934;-83
2022/07/08 01:37:21;;;;;;;13.70;2.50;;;;;;;19.11;56.39;102060.28;4955818;28;122590;-83
2022/07/08 01:39:47;;;;;;;10.52;2.70;;;;;;;19.14;56.53;102065.63;4934001;28;120338;-83
2022/07/08 01:42:16;;;;;;;12.35;2.90;;;;;;;19.12;56.91;102070.91;4952340;28;120288;-82
2022/07/08 01:44:41;;;;;;;13.27;3.03;;;;;;;19.07;56.89;102070.81;4948649;28;120018;-83
2022/07/08 01:47:07;;;;;;;14.77;3.10;;;;;;;19.09;57.02;102071.09;4934684;28;120147;-83
2022/07/08 01:49:33;;;;;;;13.10;2.97;;;;;;;19.05;57.29;102062.94;4915921;28;122735;-83
2022/07/08 01:52:01;;;;;;;8.45;2.47;;;;;;;19.02;56.84;102061.91;4948226;28;119926;-83
2022/07/08 01:54:27;;;;;;;12.43;3.05;;;;;;;18.98;57.68;102060.53;4947490;28;122416;-82
2022/07/08 01:57:13;;;;;;;14.07;2.35;;;;;;;18.98;56.91;102061.31;4927904;28;124005;-82
2022/07/08 01:59:38;;;;;;;11.45;2.40;;;;;;;18.98;57.74;102068.88;4961066;28;119777;-83
2022/07/08 02:02:04;;;;;;;9.55;2.53;;;;;;;19.02;57.62;102078.56;4957055;28;119790;-83
2022/07/08 02:04:30;;;;;;;12.60;2.85;;;;;;;19.00;57.90;102072.72;4959664;28;119832;-83
2022/07/08 02:06:55;;;;;;;11.55;2.40;;;;;;;18.95;57.98;102065.06;4956085;28;120539;-83
2022/07/08 02:09:21;;;;;;;11.55;2.80;;;;;;;18.99;57.64;102070.41;4963414;28;122442;-83
2022/07/08 02:14:32;;;;;;;12.02;2.45;;;;;;;18.90;57.98;102071.25;4963435;28;120347;-83
2022/07/08 02:16:58;;;;;;;11.25;2.70;;;;;;;18.92;58.33;102074.31;4961200;28;122265;-82
2022/07/08 02:19:24;;;;;;;13.73;2.70;;;;;;;18.86;58.05;102067.13;4947901;28;121123;-83
2022/07/08 02:21:50;;;;;;;11.63;2.55;;;;;;;18.88;57.83;102082.06;4948211;28;122000;-83
2022/07/08 02:24:16;;;;;;;9.57;2.20;;;;;;;18.88;58.11;102075.75;4965194;28;120756;-84
2022/07/08 02:26:41;;;;;;;11.25;2.53;;;;;;;18.91;57.72;102095.03;4958531;28;120603;-83
2022/07/08 02:29:13;;;;;;;11.00;2.27;;;;;;;18.85;57.41;102083.03;4959861;28;120453;-84
2022/07/08 02:31:38;;;;;;;10.00;2.25;;;;;;;18.83;58.13;102082.72;4962524;28;120576;-83
2022/07/08 02:34:04;;;;;;;13.77;3.25;;;;;;;18.88;57.93;102090.41;4959926;28;120154;-83
2022/07/08 02:36:30;;;;;;;11.25;2.25;;;;;;;18.81;58.10;102076.13;4956238;28;120173;-83
2022/07/08 02:38:55;;;;;;;10.90;2.65;;;;;;;18.85;57.43;102085.81;4963605;28;119588;-83
2022/07/08 02:41:21;;;;;;;10.10;2.78;;;;;;;18.91;57.63;102097.03;4959005;28;120343;-83
2022/07/08 02:43:47;;;;;;;8.85;2.30;;;;;;;18.90;57.62;102101.81;4940664;28;123190;-83
2022/07/08 02:46:18;;;;;;;7.50;2.40;;;;;;;18.86;58.02;102098.47;4958646;28;120018;-83
2022/07/08 02:48:44;;;;;;;11.27;2.40;;;;;;;18.89;58.24;102105.84;4958404;28;119557;-81
2022/07/08 02:51:09;;;;;;;10.97;2.30;;;;;;;18.84;57.87;102089.81;4964319;28;120214;-83
2022/07/08 02:53:35;;;;;;;10.70;2.45;;;;;;;18.88;57.57;102109.09;4966034;28;122704;-83
2022/07/08 02:56:01;;;;;;;8.15;2.28;;;;;;;18.84;58.43;102098.16;4957297;28;119907;-83
2022/07/08 02:58:27;;;;;;;11.80;3.10;;;;;;;18.82;58.59;102094.31;4957498;28;120468;-83
2022/07/08 03:00:59;;;;;;;13.63;2.43;;;;;;;18.83;58.15;102096.63;4950018;28;121929;-83
2022/07/08 03:03:43;;;;;;;10.00;2.53;;;;;;;18.82;58.18;102097.88;4947004;28;121389;-82
2022/07/08 03:06:08;;;;;;;9.17;2.20;;;;;;;18.79;58.31;102093.28;4944582;28;120435;-83
2022/07/08 03:08:34;;;;;;;12.20;2.40;;;;;;;18.88;58.67;102111.88;4959700;28;121986;-83
2022/07/08 03:11:00;;;;;;;11.27;2.40;;;;;;;18.81;58.15;102098.34;4945057;28;122794;-83
2022/07/08 03:13:25;;;;;;;10.47;2.20;;;;;;;18.80;58.08;102108.69;4946823;28;120049;-83
2022/07/08 03:15:59;;;;;;;7.65;1.98;;;;;;;18.81;58.04;102085.22;4958621;28;120484;-82
2022/07/08 03:18:25;;;;;;;10.97;2.50;;;;;;;18.82;57.86;102089.53;4957491;28;120380;-83
2022/07/08 03:20:51;;;;;;;7.80;2.20;;;;;;;18.79;58.20;102096.03;4967353;28;121795;-83
2022/07/08 03:23:19;;;;;;;14.30;2.50;;;;;;;18.82;58.50;102105.44;4933811;28;121292;-83
2022/07/08 03:25:45;;;;;;;11.15;2.53;;;;;;;18.89;58.08;102111.41;4953119;28;121045;-83
2022/07/08 03:28:10;;;;;;;9.15;2.60;;;;;;;18.90;58.47;102112.94;4969923;28;120448;-83
2022/07/08 03:30:36;;;;;;;9.10;2.30;;;;;;;18.88;58.27;102121.00;4971316;28;119854;-83
2022/07/08 03:33:01;;;;;;;8.37;2.23;;;;;;;18.93;58.92;102122.38;4958826;28;119988;-83
2022/07/08 03:35:27;;;;;;;12.23;2.60;;;;;;;18.93;58.29;102125.94;4937742;28;121406;-83
2022/07/08 03:37:53;;;;;;;11.17;2.30;;;;;;;18.92;58.44;102121.59;4959358;28;120498;-83
2022/07/08 03:43:08;;;;;;;9.10;2.60;;;;;;;18.94;58.66;102121.91;4961902;28;121347;-83
2022/07/08 03:45:34;;;;;;;9.10;2.27;;;;;;;19.00;58.54;102125.56;4931633;28;119893;-83
2022/07/08 03:48:03;;;;;;;10.70;2.65;;;;;;;19.00;58.36;102122.00;4960129;28;120264;-83
2022/07/08 03:50:29;;;;;;;10.55;2.47;;;;;;;18.99;58.96;102124.03;4941695;28;123968;-83
2022/07/08 03:52:55;;;;;;;9.90;2.65;;;;;;;19.00;58.83;102122.78;4960361;28;120141;-83
2022/07/08 03:55:23;;;;;;;12.50;2.63;;;;;;;19.07;58.66;102132.00;4965229;28;119651;-82
2022/07/08 03:57:49;;;;;;;11.27;2.33;;;;;;;19.09;58.25;102126.72;4962732;28;120076;-83
2022/07/08 04:00:15;;;;;;;10.15;2.20;;;;;;;19.06;58.42;102120.09;4962885;28;120365;-83
2022/07/08 04:02:41;;;;;;;9.23;2.03;;;;;;;19.13;58.73;102124.53;4958786;28;122905;-83
2022/07/08 04:05:07;;;;;;;9.03;2.00;;;;;;;19.08;58.66;102123.19;4944140;28;120327;-83
2022/07/08 04:07:33;;;;;;;9.52;2.30;;;;;;;19.17;58.36;102136.25;4945879;28;122212;-83
2022/07/08 04:09:59;;;;;;;9.95;2.22;;;;;;;19.20;58.76;102135.31;4961323;28;120754;-83
2022/07/08 04:12:25;;;;;;;11.13;2.53;;;;;;;19.23;58.40;102134.34;4965053;28;119842;-83
2022/07/08 04:14:51;;;;;;;8.13;2.10;;;;;;;19.25;58.53;102127.06;4948076;28;122039;-83
2022/07/08 04:17:16;;;;;;;10.10;2.35;;;;;;;19.37;58.29;102141.19;4983459;28;122786;-83
2022/07/08 04:19:42;;;;;;;9.70;2.30;;;;;;;19.39;58.52;102135.91;4953231;28;120028;-83
2022/07/08 04:22:08;;;;;;;10.23;2.30;;;;;;;19.39;57.57;102128.31;4944712;28;123496;-83
2022/07/08 04:24:33;;;;;;;11.87;2.67;;;;;;;19.44;57.95;102133.25;4961922;28;120792;-83
2022/07/08 04:26:59;;;;;;;8.17;2.20;;;;;;;19.47;57.85;102143.44;4933460;28;121846;-83
2022/07/08 04:29:25;;;;;;;8.37;2.30;;;;;;;19.55;58.27;102149.41;4955198;28;120898;-83
2022/07/08 04:31:51;;;;;;;10.77;2.38;;;;;;;19.58;58.65;102149.22;4956451;28;119986;-83
2022/07/08 04:34:16;;;;;;;10.98;2.65;;;;;;;19.63;58.73;102153.34;4934543;28;121983;-83
2022/07/08 04:36:42;;;;;;;7.80;2.40;;;;;;;19.60;58.40;102149.50;4967270;28;120104;-83
2022/07/08 04:39:08;;;;;;;10.52;2.38;;;;;;;19.62;58.64;102144.22;4951063;28;119927;-83
2022/07/08 04:41:33;;;;;;;10.98;2.35;;;;;;;19.70;58.29;102166.16;4948780;28;122356;-83
2022/07/08 04:43:59;;;;;;;10.57;2.40;;;;;;;19.62;58.11;102154.59;4958526;28;119945;-82
2022/07/08 04:46:24;;;;;;;10.23;2.60;;;;;;;19.66;58.73;102157.22;4944937;28;122279;-83
2022/07/08 04:48:51;;;;;;;10.70;2.40;;;;;;;19.67;59.06;102162.31;4923957;28;123395;-83
2022/07/08 04:51:17;;;;;;;11.07;2.70;;;;;;;19.70;58.88;102160.56;4945045;28;120319;-83
2022/07/08 04:53:43;;;;;;;8.57;2.63;;;;;;;19.74;58.45;102170.28;4944183;28;122425;-83
2022/07/08 04:56:09;;;;;;;13.40;2.63;;;;;;;19.72;59.01;102156.06;4949143;28;120800;-83
2022/07/08 04:58:34;;;;;;;10.13;2.37;;;;;;;19.78;58.87;102158.94;4959476;28;120398;-83
2022/07/08 05:01:00;;;;;;;12.33;2.60;;;;;;;19.78;58.34;102151.34;4938867;28;122291;-83
2022/07/08 05:03:25;;;;;;;9.90;2.93;;;;;;;19.83;58.42;102163.84;4959123;28;120476;-83
2022/07/08 05:05:51;;;;;;;10.55;2.58;;;;;;;19.81;58.86;102167.09;4949801;28;120308;-83
2022/07/08 05:08:17;;;;;;;10.88;2.50;;;;;;;19.83;59.07;102155.47;4948262;28;123626;-83
2022/07/08 05:11:05;;;;;;;13.00;2.63;;;;;;;19.87;59.50;102165.19;4937595;28;120750;-83
2022/07/08 05:13:31;;;;;;;9.70;2.73;;;;;;;19.85;59.13;102153.75;4946886;28;121767;-83
2022/07/08 05:15:56;;;;;;;11.07;2.63;;;;;;;19.92;59.32;102161.75;4926308;28;121766;-83
2022/07/08 05:18:22;;;;;;;8.27;2.50;;;;;;;19.95;58.69;102168.38;4968395;28;119915;-83
2022/07/08 05:20:49;;;;;;;10.73;2.88;;;;;;;19.95;59.60;102168.38;4968461;28;120343;-82
2022/07/08 05:23:14;;;;;;;8.48;2.92;;;;;;;19.98;59.77;102169.41;4949127;28;123000;-82
2022/07/08 05:25:58;;;;;;;9.13;2.63;;;;;;;20.02;59.91;102170.75;4951641;28;119969;-82
2022/07/08 05:28:27;;;;;;;10.57;2.75;;;;;;;19.99;59.77;102157.81;4943791;28;123103;-83
2022/07/08 05:30:52;;;;;;;10.07;2.50;;;;;;;20.04;60.13;102159.13;4941943;28;119701;-82
2022/07/08 05:33:21;;;;;;;7.50;2.43;;;;;;;20.03;60.42;102154.81;4968457;28;120275;-82
2022/07/08 05:35:46;;;;;;;9.60;2.65;;;;;;;20.11;60.26;102173.47;4967407;28;121172;-82
2022/07/08 05:38:12;;;;;;;9.90;2.40;;;;;;;20.13;60.88;102182.09;4951579;28;120004;-82
2022/07/08 05:40:37;;;;;;;9.90;2.80;;;;;;;20.11;61.14;102170.69;4949217;28;122308;-82
2022/07/08 05:43:04;;;;;;;7.25;2.45;;;;;;;20.14;60.97;102177.31;4951258;28;123300;-82
2022/07/08 05:45:29;;;;;;;9.73;2.70;;;;;;;20.10;61.12;102171.91;4971356;28;120535;-83
2022/07/08 05:47:55;;;;;;;9.37;2.60;;;;;;;20.16;61.02;102185.94;4947564;28;123249;-82
2022/07/08 05:50:24;;;;;;;10.90;2.83;;;;;;;20.13;61.25;102170.19;4926720;28;120076;-82
2022/07/08 05:52:50;;;;;;;8.47;2.37;;;;;;;20.14;61.66;102175.28;4972191;28;119838;-82
2022/07/08 05:55:15;;;;;;;7.57;2.50;;;;;;;20.21;61.29;102183.25;4917604;28;122900;-83
2022/07/08 05:57:41;;;;;;;7.53;2.40;;;;;;;20.29;61.15;102196.78;4947016;28;119979;-82
2022/07/08 06:00:07;;;;;;;11.20;2.45;;;;;;;20.24;61.40;102181.50;4959790;28;120290;-83
2022/07/08 06:02:37;;;;;;;8.52;2.30;;;;;;;20.30;61.97;102176.78;4950576;28;120356;-83
2022/07/08 06:05:03;;;;;;;8.63;2.47;;;;;;;20.31;61.58;102174.75;4927453;28;119874;-83
2022/07/08 06:07:29;;;;;;;8.00;2.33;;;;;;;20.32;61.89;102176.31;4960803;28;120353;-83
2022/07/08 06:10:15;;;;;;;10.93;2.60;;;;;;;20.36;62.34;102182.47;4960499;28;120815;-83
2022/07/08 06:12:40;;;;;;;8.43;2.53;;;;;;;20.35;62.78;102178.16;4940639;28;123087;-83
2022/07/08 06:15:06;;;;;;;7.43;2.40;;;;;;;20.42;63.37;102192.47;4945611;28;123680;-83
2022/07/08 06:17:32;;;;;;;6.25;2.55;;;;;;;20.41;63.38;102184.59;4946355;28;120187;-82
2022/07/08 06:19:59;;;;;;;8.88;2.83;;;;;;;20.41;63.27;102188.16;4959574;28;120828;-83
2022/07/08 06:22:24;;;;;;;9.40;2.80;;;;;;;20.43;63.23;102187.66;4956808;28;120831;-82
2022/07/08 06:24:50;;;;;;;7.70;2.67;;;;;;;20.44;63.40;102187.19;4937344;28;121745;-84
2022/07/08 06:27:16;;;;;;;8.00;2.72;;;;;;;20.40;63.33;102180.25;4953965;28;121402;-84
2022/07/08 06:29:42;;;;;;;8.50;2.50;;;;;;;20.40;63.60;102183.84;4949118;28;122688;-84
2022/07/08 06:32:07;;;;;;;5.97;2.40;;;;;;;20.43;63.69;102196.03;4962232;28;119902;-82
2022/07/08 06:34:33;;;;;;;8.97;3.00;;;;;;;20.37;63.76;102181.22;4963835;28;121190;-83
2022/07/08 06:36:59;;;;;;;7.03;2.60;;;;;;;20.43;63.71;102196.81;4945284;28;120332;-83
2022/07/08 06:39:24;;;;;;;8.35;2.70;;;;;;;20.39;63.88;102193.41;4928639;28;121885;-84
2022/07/08 06:41:50;;;;;;;10.63;2.70;;;;;;;20.34;64.04;102187.72;4946727;28;123564;-83
2022/07/08 06:44:16;;;;;;;7.53;2.65;;;;;;;20.36;63.79;102193.63;4945964;28;120388;-83
2022/07/08 06:46:41;;;;;;;8.57;2.80;;;;;;;20.39;63.78;102196.22;4929795;28;121859;-84
2022/07/08 06:49:08;;;;;;;6.30;2.80;;;;;;;20.33;64.35;102194.56;4930901;28;123817;-83
2022/07/08 06:51:33;;;;;;;6.43;2.30;;;;;;;20.31;64.57;102186.69;4934566;28;120145;-83
2022/07/08 06:56:43;;;;;;;6.10;2.20;;;;;;;20.35;64.67;102192.84;4963147;28;121678;-83
2022/07/08 06:59:09;;;;;;;6.60;2.43;;;;;;;20.37;64.76;102195.91;4934503;28;122023;-83
2022/07/08 07:01:34;;;;;;;7.10;2.40;;;;;;;20.36;64.69;102197.16;4933386;28;123026;-83
2022/07/08 07:04:01;;;;;;;5.72;2.50;;;;;;;20.37;65.07;102207.06;4950845;28;121536;-83
2022/07/08 07:06:27;;;;;;;7.63;2.80;;;;;;;20.44;64.86;102214.28;4967430;28;122786;-82
2022/07/08 07:08:52;;;;;;;6.37;2.40;;;;;;;20.40;64.54;102210.91;4966952;28;120480;-82
2022/07/08 07:11:18;;;;;;;7.67;2.50;;;;;;;20.45;64.65;102224.97;4937659;28;120343;-82
2022/07/08 07:13:45;;;;;;;5.87;2.50;;;;;;;20.44;64.91;102214.28;4950332;28;124252;-83
2022/07/08 07:16:11;;;;;;;7.25;2.30;;;;;;;20.41;64.76;102212.47;4949438;28;120311;-82
2022/07/08 07:18:37;;;;;;;6.30;2.38;;;;;;;20.37;65.49;102206.31;4950325;28;122120;-83
2022/07/08 07:21:02;;;;;;;7.28;2.15;;;;;;;20.49;65.20;102216.41;4950010;28;122798;-83
2022/07/08 07:23:28;;;;;;;7.43;2.20;;;;;;;20.45;65.03;102208.22;4951076;28;120331;-82
2022/07/08 07:25:54;;;;;;;7.30;2.10;;;;;;;20.48;65.04;102210.06;4949402;28;122426;-82
2022/07/08 07:28:19;;;;;;;5.67;1.90;;;;;;;20.51;65.02;102213.88;4968315;28;120346;-82
2022/07/08 07:30:45;;;;;;;5.30;2.05;;;;;;;20.52;64.82;102212.63;4933529;28;120242;-83
2022/07/08 07:33:10;;;;;;;10.13;2.35;;;;;;;20.49;64.94;102210.81;4970578;28;122332;-82
2022/07/08 07:35:37;;;;;;;6.90;1.90;;;;;;;20.52;64.91;102209.84;4966493;28;119999;-83
2022/07/08 07:38:02;;;;;;;4.85;1.92;;;;;;;20.48;64.96;102206.50;4967101;28;119939;-82
2022/07/08 07:40:31;;;;;;;4.63;1.77;;;;;;;20.52;65.00;102218.22;4950077;28;123035;-83
2022/07/08 07:42:57;;;;;;;7.32;1.80;;;;;;;20.59;65.01;102223.41;4933957;28;120170;-81
2022/07/08 07:45:22;;;;;;;3.85;1.58;;;;;;;20.58;64.94;102235.78;4948713;28;122483;-82
2022/07/08 07:47:48;;;;;;;5.47;1.83;;;;;;;20.60;65.32;102224.94;4964610;28;123597;-83
2022/07/08 07:50:13;;;;;;;7.03;2.00;;;;;;;20.72;65.52;102237.78;4966821;28;120021;-83
2022/07/08 07:52:39;;;;;;;6.90;2.20;;;;;;;20.81;65.45;102239.69;4935764;28;122019;-82
2022/07/08 07:55:06;;;;;;;4.47;1.80;;;;;;;20.86;65.58;102241.03;4936920;28;123900;-82
2022/07/08 07:57:50;;;;;;;3.10;1.48;;;;;;;20.99;65.22;102233.88;4951865;28;121919;-83
2022/07/08 08:00:19;;;;;;;3.53;1.37;;;;;;;21.04;64.89;102229.63;4949234;28;122937;-83
2022/07/08 08:02:45;;;;;;;5.82;1.50;;;;;;;21.09;64.54;102226.16;4967378;28;121329;-83
2022/07/08 08:05:11;;;;;;;4.50;1.60;;;;;;;21.20;64.28;102231.09;4948670;28;120073;-83
2022/07/08 08:07:38;;;;;;;2.73;1.40;;;;;;;21.25;64.35;102234.00;4965750;28;120215;-83
2022/07/08 08:10:05;;;;;;;5.07;1.40;;;;;;;21.27;64.23;102231.47;4950006;28;119903;-82
2022/07/08 08:12:31;;;;;;;3.47;1.20;;;;;;;21.29;64.48;102237.34;4948654;28;123759;-83
2022/07/08 08:14:56;;;;;;;4.47;1.20;;;;;;;21.27;63.94;102225.91;4948979;28;123779;-82
2022/07/08 08:17:22;;;;;;;3.97;1.20;;;;;;;21.36;64.65;102228.56;4953489;28;121913;-83
2022/07/08 08:19:48;;;;;;;2.88;1.20;;;;;;;21.49;64.58;102224.63;4948837;28;121954;-83
2022/07/08 08:22:13;;;;;;;3.83;1.10;;;;;;;21.56;63.39;102221.44;4949814;28;120322;-82
2022/07/08 08:24:39;;;;;;;2.53;1.03;;;;;;;21.62;63.78;102219.47;4967174;28;121593;-82
2022/07/08 08:27:05;;;;;;;3.88;1.02;;;;;;;21.69;63.17;102224.63;4965133;28;121234;-83
2022/07/08 08:29:30;;;;;;;2.80;0.90;;;;;;;21.73;62.51;102227.97;4965520;28;119920;-82
2022/07/08 08:31:56;;;;;;;1.52;0.68;;;;;;;21.65;61.24;102219.25;4949956;28;120217;-82
2022/07/08 08:34:22;;;;;;;2.00;0.90;;;;;;;21.68;61.54;102220.28;4948870;28;122885;-83
2022/07/08 08:36:47;;;;;;;2.20;0.60;;;;;;;21.64;61.46;102217.72;4946496;28;120626;-83
2022/07/08 08:39:13;;;;;;;1.40;0.70;;;;;;;21.65;61.62;102216.47;4950972;28;120543;-83
2022/07/08 08:41:40;;;;;;;1.70;0.68;;;;;;;21.73;61.43;102214.75;4967342;28;120395;-83
2022/07/08 08:44:05;;;;;;;1.40;0.70;;;;;;;21.78;61.21;102216.09;4955983;28;121698;-83
2022/07/08 08:46:32;;;;;;;1.98;0.63;;;;;;;21.75;61.50;102214.25;4947966;28;120235;-83
2022/07/08 08:49:00;;;;;;;1.25;0.65;;;;;;;21.81;61.90;102223.50;4950881;28;120497;-83
2022/07/08 08:51:30;;;;;;;2.42;0.63;;;;;;;21.74;60.71;102212.72;4969421;28;120712;-83
2022/07/08 08:53:58;;;;;;;2.20;0.88;;;;;;;21.70;61.58;102223.34;4956837;28;121649;-83
2022/07/08 08:56:25;;;;;;;2.57;0.83;;;;;;;21.65;60.74;102215.69;4967401;28;120058;-83
2022/07/08 08:58:53;;;;;;;4.45;1.10;;;;;;;21.66;60.74;102222.81;4941244;28;121998;-84
2022/07/08 09:01:19;;;;;;;3.50;0.80;;;;;;;21.66;61.45;102220.78;4971458;28;120261;-83
2022/07/08 09:03:45;;;;;;;3.30;0.82;;;;;;;21.68;59.08;102223.09;4966761;28;119859;-83
2022/07/08 09:06:12;;;;;;;3.47;0.83;;;;;;;21.70;60.93;102217.78;4929445;28;123746;-84
2022/07/08 09:08:38;;;;;;;2.90;0.80;;;;;;;21.79;59.24;102219.66;4950791;28;120531;-83
2022/07/08 09:11:24;;;;;;;2.60;0.90;;;;;;;21.81;58.98;102217.13;4933328;28;120315;-83
2022/07/08 09:14:14;;;;;;;2.30;0.77;;;;;;;21.89;58.53;102210.63;4924087;28;123177;-83
2022/07/08 09:16:40;;;;;;;3.28;0.80;;;;;;;21.99;59.04;102217.56;4921197;28;120176;-83
2022/07/08 09:19:13;;;;;;;1.50;0.80;;;;;;;22.03;58.23;102217.38;4943673;28;123071;-84
2022/07/08 09:21:57;;;;;;;2.28;0.75;;;;;;;22.14;57.89;102219.50;4939402;28;124035;-83
2022/07/08 09:24:23;;;;;;;1.33;0.60;;;;;;;22.16;58.61;102219.78;4960016;28;120194;-84
2022/07/08 09:26:48;;;;;;;2.33;0.70;;;;;;;22.19;58.56;102216.00;4931059;28;124529;-83
2022/07/08 09:29:14;;;;;;;3.23;0.70;;;;;;;22.21;58.52;102230.22;4966744;28;120324;-82
2022/07/08 09:31:40;;;;;;;1.33;0.68;;;;;;;22.21;58.27;102217.03;4956377;28;119991;-83
2022/07/08 09:34:16;;;;;;;2.55;0.82;;;;;;;22.23;58.31;102213.72;4950674;28;122181;-84
2022/07/08 09:36:49;;;;;;;1.80;0.82;;;;;;;22.23;57.22;102219.31;4951255;28;120059;-83
2022/07/08 09:39:25;;;;;;;2.90;0.75;;;;;;;22.31;58.14;102218.41;4964383;28;120890;-84
2022/07/08 09:41:50;;;;;;;2.50;0.90;;;;;;;22.37;58.38;102215.63;4931962;28;122226;-84
2022/07/08 09:44:19;;;;;;;3.10;1.00;;;;;;;22.40;59.00;102206.25;4938267;28;120925;-83
2022/07/08 09:46:45;;;;;;;2.65;0.80;;;;;;;22.53;59.03;102209.41;4966714;28;120558;-84
2022/07/08 09:49:31;;;;;;;2.40;0.80;;;;;;;22.63;56.29;102221.94;4964668;28;120957;-85
2022/07/08 09:51:58;;;;;;;2.83;0.80;;;;;;;22.66;55.32;102228.56;4967891;28;121658;-82
2022/07/08 09:54:24;;;;;;;2.50;0.90;;;;;;;22.62;55.01;102217.59;4946863;28;123942;-83
2022/07/08 09:57:01;;;;;;;1.87;0.80;;;;;;;22.62;56.10;102228.78;4956297;28;120643;-83
2022/07/08 09:59:31;;;;;;;2.28;1.00;;;;;;;22.66;56.16;102222.97;4931871;28;121142;-82
2022/07/08 10:01:57;;;;;;;4.57;1.15;;;;;;;22.66;55.95;102206.94;4966230;28;123680;-83
2022/07/08 10:04:26;;;;;;;4.05;1.05;;;;;;;22.86;54.73;102231.28;4934881;28;120478;-83
2022/07/08 10:06:53;;;;;;;2.78;1.27;;;;;;;22.87;56.08;102216.00;4952166;28;123780;-83
2022/07/08 10:09:20;;;;;;;3.05;1.10;;;;;;;22.87;55.70;102204.81;4958899;28;120639;-83
2022/07/08 10:11:47;;;;;;;5.23;1.40;;;;;;;22.99;54.09;102233.66;4945354;28;120663;-83
2022/07/08 10:14:13;;;;;;;5.93;1.20;;;;;;;22.99;55.70;102236.44;4924596;28;123693;-84
2022/07/08 10:16:40;;;;;;;5.47;1.27;;;;;;;22.97;54.28;102233.38;4950208;28;120855;-82
2022/07/08 10:19:12;;;;;;;4.78;1.40;;;;;;;22.94;55.65;102225.97;4945922;28;123613;-83
2022/07/08 10:21:40;;;;;;;5.03;1.77;;;;;;;23.02;55.71;102238.25;4946729;28;122725;-83
2022/07/08 10:24:10;;;;;;;5.77;1.40;;;;;;;23.06;56.13;102238.00;4942512;28;120584;-84
2022/07/08 10:26:40;;;;;;;4.77;1.27;;;;;;;23.05;54.58;102237.25;4949518;28;123070;-83
2022/07/08 10:29:06;;;;;;;4.45;1.60;;;;;;;23.08;55.37;102236.22;4965456;28;120880;-83
2022/07/08 10:31:41;;;;;;;6.40;1.52;;;;;;;23.07;54.60;102240.28;4961463;28;121042;-83
2022/07/08 10:34:07;;;;;;;6.13;1.60;;;;;;;23.06;53.35;102249.19;4968950;28;124251;-83
2022/07/08 10:36:53;;;;;;;3.63;1.30;;;;;;;22.95;53.27;102239.47;4953271;28;120592;-83
2022/07/08 10:39:37;;;;;;;4.65;1.40;;;;;;;22.85;52.78;102243.72;4954022;28;121126;-83
2022/07/08 10:42:08;;;;;;;4.10;1.55;;;;;;;22.92;53.26;102246.06;4953084;28;124669;-84
2022/07/08 10:44:43;;;;;;;4.63;1.42;;;;;;;22.92;54.26;102253.69;4950552;28;121111;-84
2022/07/08 10:47:16;;;;;;;4.87;1.70;;;;;;;22.89;53.93;102240.69;4954390;28;121333;-84
2022/07/08 10:49:46;;;;;;;5.03;1.40;;;;;;;22.89;53.64;102249.09;4955399;28;122270;-83
2022/07/08 10:52:13;;;;;;;5.32;1.63;;;;;;;22.90;54.29;102243.00;4973665;28;120974;-83
2022/07/08 10:54:39;;;;;;;5.72;1.27;;;;;;;22.94;53.87;102231.56;4961786;28;121244;-83
2022/07/08 10:57:25;;;;;;;3.80;1.50;;;;;;;22.96;53.68;102231.84;4965200;28;121083;-83
2022/07/08 11:00:02;;;;;;;6.80;1.60;;;;;;;23.02;52.82;102241.03;4949480;28;122234;-84
2022/07/08 11:02:29;;;;;;;5.75;1.60;;;;;;;23.03;53.49;102236.22;4964836;28;121194;-84
2022/07/08 11:04:57;;;;;;;4.47;1.30;;;;;;;23.11;53.09;102249.22;4932976;28;120974;-83
2022/07/08 11:07:27;;;;;;;5.43;1.47;;;;;;;23.16;51.49;102242.88;4933761;28;124117;-83
2022/07/08 11:10:20;;;;;;;5.23;1.83;;;;;;;23.18;50.59;102242.38;4933477;28;124323;-83
2022/07/08 11:12:46;;;;;;;5.80;1.65;;;;;;;23.19;52.35;102241.91;4930979;28;120801;-83
2022/07/08 11:15:14;;;;;;;5.60;1.60;;;;;;;23.12;52.50;102225.56;4951955;28;122203;-84
2022/07/08 11:17:41;;;;;;;6.30;1.73;;;;;;;23.15;52.56;102235.75;4982549;28;120827;-83
2022/07/08 11:20:12;;;;;;;5.28;1.60;;;;;;;23.14;52.13;102241.84;4950638;28;123019;-85
2022/07/08 11:22:50;;;;;;;4.17;1.50;;;;;;;23.14;52.36;102239.81;4966559;28;121536;-84
2022/07/08 11:25:16;;;;;;;5.47;1.60;;;;;;;23.20;52.56;102248.25;4931335;28;121362;-84